Time;durP1;ratioP1;P1;durP2;ratioP2;P2;SDS_P1;SDS_P2;PMS_P1;PMS_P2;Temp;Humidity;BMP_temperature;BMP_pressure;BME280_temperature;BME280_humidity;BME280_pressure;Samples;Min_cycle;Max_cycle;Signal;HPM_P1;HPM_P2
2021/10/25 03:50:55;;;;;;;1034.37;942.60;;;2.80;99.90;;;;;;6146218;23;20453;-85
2021/10/25 06:39:53;;;;;;;982.67;892.30;;;2.20;99.90;;;;;;6196728;23;20440;-85
2021/10/25 06:42:26;;;;;;;984.00;895.07;;;2.30;99.90;;;;;;6196794;23;20420;-85
2021/10/25 07:13:14;;;;;;;966.97;875.17;;;3.00;99.90;;;;;;6050145;23;20413;-87
2021/10/25 07:16:16;;;;;;;960.17;869.70;;;3.00;99.90;;;;;;6192657;23;20404;-86
2021/10/25 07:19:32;;;;;;;957.07;866.80;;;3.30;99.90;;;;;;6073110;23;20420;-86
2021/10/25 08:04:32;;;;;;;868.90;786.67;;;6.00;99.90;;;;;;6125495;23;20459;-88
2021/10/25 08:07:04;;;;;;;876.57;793.77;;;6.10;99.90;;;;;;6195269;23;20460;-88
2021/10/25 08:09:49;;;;;;;863.87;780.70;;;6.30;99.90;;;;;;6185065;23;20915;-88
2021/10/25 08:12:25;;;;;;;869.77;785.57;;;6.30;99.90;;;;;;6195771;23;20441;-86
2021/10/25 08:14:57;;;;;;;869.03;785.50;;;6.30;99.90;;;;;;6195088;23;20750;-89
2021/10/25 08:17:31;;;;;;;862.77;779.90;;;6.50;99.90;;;;;;6193740;23;20420;-88
2021/10/25 08:20:14;;;;;;;846.00;764.93;;;6.60;99.90;;;;;;6195138;23;20412;-89
2021/10/25 08:22:55;;;;;;;847.13;768.43;;;6.80;99.90;;;;;;6195254;23;20436;-88
2021/10/25 08:25:28;;;;;;;834.30;756.70;;;6.90;99.90;;;;;;6194669;23;20439;-89
2021/10/25 08:27:58;;;;;;;819.93;744.40;;;7.00;99.90;;;;;;6195096;23;20416;-88
2021/10/25 08:30:30;;;;;;;822.57;747.57;;;7.20;99.90;;;;;;6194740;23;20440;-87
2021/10/25 08:33:14;;;;;;;810.60;737.57;;;7.20;99.90;;;;;;6193470;23;20536;-89
2021/10/25 08:35:55;;;;;;;802.30;729.63;;;7.30;99.90;;;;;;6194852;23;20405;-88
2021/10/25 08:41:13;;;;;;;789.77;720.93;;;7.40;99.90;;;;;;6194657;23;20471;-89
2021/10/25 08:43:41;;;;;;;779.73;712.70;;;7.60;99.90;;;;;;6194958;23;20416;-87
2021/10/25 08:46:09;;;;;;;784.90;719.20;;;7.70;99.90;;;;;;6193429;23;20799;-90
2021/10/25 08:48:37;;;;;;;775.13;710.70;;;7.80;99.90;;;;;;6195120;23;20413;-86
2021/10/25 08:51:11;;;;;;;762.87;702.57;;;8.00;99.90;;;;;;6194858;23;20500;-90
2021/10/25 08:53:49;;;;;;;749.63;690.30;;;8.10;99.90;;;;;;6195042;23;20472;-90
2021/10/25 08:56:18;;;;;;;740.17;684.23;;;8.30;99.90;;;;;;6194747;23;20409;-90
2021/10/25 08:59:00;;;;;;;728.63;674.70;;;8.30;99.90;;;;;;6195177;23;20409;-90
2021/10/25 09:01:42;;;;;;;719.43;667.43;;;8.50;99.90;;;;;;6183440;23;20709;-90
2021/10/25 09:04:18;;;;;;;689.67;646.33;;;8.70;99.90;;;;;;6194784;23;20417;-90
2021/10/25 09:06:58;;;;;;;668.60;629.33;;;8.70;99.90;;;;;;6194378;23;20437;-90
2021/10/25 09:09:26;;;;;;;522.20;499.03;;;8.90;99.90;;;;;;6184575;23;20409;-91
2021/10/25 09:12:08;;;;;;;482.97;462.07;;;9.00;99.90;;;;;;6195006;23;20425;-91
2021/10/25 09:14:39;;;;;;;441.47;423.23;;;9.20;99.90;;;;;;6184990;23;20397;-90
2021/10/25 09:17:16;;;;;;;260.20;250.70;;;9.30;99.90;;;;;;6192998;23;20413;-90
2021/10/25 09:19:57;;;;;;;86.87;82.60;;;9.50;99.90;;;;;;6194883;23;20417;-90
2021/10/25 09:22:27;;;;;;;47.13;43.93;;;9.80;99.90;;;;;;6194542;23;20416;-89
2021/10/25 09:25:04;;;;;;;96.10;91.60;;;10.20;99.90;;;;;;6194508;23;20417;-90
2021/10/25 09:27:43;;;;;;;42.63;39.93;;;10.90;99.90;;;;;;6150174;23;20399;-90
2021/10/25 09:30:15;;;;;;;16.57;14.87;;;11.30;94.50;;;;;;6165408;23;20406;-91
2021/10/25 09:32:46;;;;;;;19.73;12.23;;;11.80;93.20;;;;;;6164110;23;20431;-90
2021/10/25 09:35:27;;;;;;;17.37;12.20;;;12.10;87.80;;;;;;6155371;23;20891;-91
2021/10/25 09:37:59;;;;;;;14.70;10.57;;;12.50;90.10;;;;;;6165466;23;20415;-90
2021/10/25 09:40:48;;;;;;;12.30;8.67;;;12.50;81.40;;;;;;6155490;23;20462;-91
2021/10/25 09:45:03;;;;;;;12.50;8.80;;;12.50;80.80;;;;;;6165126;23;20423;-91
2021/10/25 09:48:59;;;;;;;12.13;8.23;;;13.10;80.30;;;;;;6153298;23;20414;-89
2021/10/25 09:49:53;;;;;;;;;;;;;;;;;;;;;
2021/10/25 09:52:29;;;;;;;16.03;7.33;;;14.20;77.80;;;;;;6097067;23;20477;-91
2021/10/25 09:54:59;;;;;;;15.13;8.47;;;14.70;74.50;;;;;;6166799;23;20482;-90
2021/10/25 09:57:38;;;;;;;9.53;6.07;;;15.20;63.00;;;;;;6157381;23;20408;-90
2021/10/25 10:00:27;;;;;;;10.70;6.70;;;16.00;67.80;;;;;;6166874;23;20423;-91
2021/10/25 10:02:56;;;;;;;16.83;8.00;;;16.70;52.30;;;;;;6165318;23;20448;-90
2021/10/25 10:05:25;;;;;;;13.93;7.10;;;16.80;50.20;;;;;;6157441;23;20704;-90
2021/10/25 10:07:52;;;;;;;11.20;6.73;;;16.40;46.80;;;;;;6167022;23;20500;-90
2021/10/25 10:10:22;;;;;;;10.97;6.33;;;16.10;49.60;;;;;;6166784;23;20473;-90
2021/10/25 10:12:52;;;;;;;11.30;7.20;;;16.20;44.80;;;;;;6157298;23;20406;-89
2021/10/25 10:15:20;;;;;;;12.10;6.30;;;16.60;50.50;;;;;;6167018;23;20480;-90
2021/10/25 10:17:51;;;;;;;9.43;5.83;;;17.20;44.00;;;;;;6165397;23;20443;-89
2021/10/25 10:20:22;;;;;;;12.60;6.73;;;17.60;40.70;;;;;;6167000;23;20407;-91
2021/10/25 10:22:55;;;;;;;10.83;6.30;;;17.80;39.40;;;;;;6157123;23;20440;-90
2021/10/25 10:25:30;;;;;;;10.97;5.80;;;17.60;36.40;;;;;;6157154;23;20410;-91
2021/10/25 10:28:05;;;;;;;10.77;8.10;;;17.60;35.80;;;;;;6156956;23;20452;-90
2021/10/25 10:30:33;;;;;;;13.00;6.67;;;17.50;36.00;;;;;;6166798;23;20411;-89
2021/10/25 10:33:10;;;;;;;9.87;5.97;;;18.00;34.60;;;;;;6165332;23;20417;-90
2021/10/25 10:35:55;;;;;;;11.07;5.70;;;17.60;35.10;;;;;;6156536;23;20502;-90
2021/10/25 10:38:34;;;;;;;9.20;5.83;;;17.00;34.00;;;;;;6166909;23;20411;-90
2021/10/25 10:41:03;;;;;;;16.67;6.93;;;16.80;38.70;;;;;;6166619;23;20404;-90
2021/10/25 10:43:30;;;;;;;13.80;8.93;;;16.40;39.50;;;;;;6156846;23;20487;-89
2021/10/25 10:46:13;;;;;;;11.17;5.90;;;16.70;37.70;;;;;;6165398;23;20413;-89
2021/10/25 10:48:45;;;;;;;11.77;6.20;;;17.00;38.40;;;;;;6166463;23;20410;-87
2021/10/25 10:51:15;;;;;;;12.70;5.53;;;17.00;37.10;;;;;;6166637;23;20475;-89
2021/10/25 10:54:00;;;;;;;12.90;5.57;;;17.30;38.30;;;;;;6156511;23;20895;-89
2021/10/25 10:56:30;;;;;;;9.37;5.00;;;17.30;36.20;;;;;;6156853;23;20465;-88
2021/10/25 10:59:18;;;;;;;11.47;5.27;;;17.40;36.00;;;;;;6166498;23;20449;-89
2021/10/25 11:01:55;;;;;;;12.30;5.50;;;17.30;36.60;;;;;;6164790;23;20739;-88
2021/10/25 11:04:29;;;;;;;10.47;6.10;;;17.70;36.90;;;;;;6166314;23;20414;-89
2021/10/25 11:06:59;;;;;;;14.97;5.40;;;17.60;35.20;;;;;;6166412;23;20914;-90
2021/10/25 11:09:31;;;;;;;12.50;5.80;;;17.60;34.70;;;;;;6166658;23;20434;-89
2021/10/25 11:12:01;;;;;;;7.90;5.00;;;17.60;35.60;;;;;;6156221;23;20445;-89
2021/10/25 11:14:33;;;;;;;14.20;5.30;;;17.60;35.60;;;;;;6156194;23;20892;-89
2021/10/25 11:17:14;;;;;;;9.07;4.90;;;17.80;33.80;;;;;;6165001;23;20479;-89
2021/10/25 11:19:55;;;;;;;11.00;5.20;;;17.00;35.00;;;;;;6166480;23;20494;-90
2021/10/25 11:22:32;;;;;;;10.70;5.07;;;16.80;39.20;;;;;;6156344;23;20495;-89
2021/10/25 11:25:01;;;;;;;8.17;5.10;;;17.00;38.10;;;;;;6156412;23;20399;-88
2021/10/25 11:27:32;;;;;;;9.63;5.60;;;17.30;37.00;;;;;;6166344;23;20931;-90
2021/10/25 11:30:40;;;;;;;11.23;5.70;;;17.50;37.30;;;;;;6156495;23;20450;-89
2021/10/25 11:33:10;;;;;;;9.47;4.97;;;17.30;34.30;;;;;;6164902;23;20409;-89
2021/10/25 11:35:50;;;;;;;11.07;5.50;;;17.30;37.70;;;;;;6156437;23;20434;-88
2021/10/25 11:38:20;;;;;;;10.70;5.43;;;17.00;37.70;;;;;;6166257;23;20410;-90
2021/10/25 11:40:55;;;;;;;8.27;5.37;;;16.80;39.20;;;;;;6166381;23;20403;-88
2021/10/25 11:43:31;;;;;;;12.77;5.67;;;16.80;40.50;;;;;;6155890;23;20467;-89
2021/10/25 11:46:01;;;;;;;10.30;4.93;;;16.60;38.80;;;;;;6164222;23;20500;-89
2021/10/25 11:48:30;;;;;;;10.13;5.70;;;16.70;38.70;;;;;;6166130;23;20882;-91
2021/10/25 11:51:00;;;;;;;11.33;6.33;;;16.40;40.20;;;;;;6165797;23;20442;-90
2021/10/25 11:53:36;;;;;;;11.40;6.37;;;16.50;41.00;;;;;;6165943;23;20425;-88
2021/10/25 11:56:24;;;;;;;13.47;5.30;;;16.60;40.30;;;;;;6165395;23;20472;-89
2021/10/25 12:02:09;;;;;;;12.27;5.10;;;17.20;39.80;;;;;;6146526;23;20438;-90
2021/10/25 12:04:42;;;;;;;9.80;5.40;;;17.40;39.40;;;;;;6150811;23;20402;-90
2021/10/25 12:07:09;;;;;;;12.07;6.33;;;17.60;38.00;;;;;;6165673;23;20752;-88
2021/10/25 12:09:41;;;;;;;10.60;5.30;;;17.70;37.10;;;;;;6155792;23;20441;-90
2021/10/25 12:12:16;;;;;;;10.07;4.87;;;17.70;36.20;;;;;;6162748;23;20571;-90
2021/10/25 12:14:56;;;;;;;9.10;4.37;;;17.70;35.90;;;;;;6165779;23;20475;-90
2021/10/25 12:17:31;;;;;;;10.23;4.50;;;17.60;36.90;;;;;;6164199;23;20927;-89
2021/10/25 12:20:02;;;;;;;14.00;4.57;;;17.90;35.80;;;;;;6165775;23;20436;-89
2021/10/25 12:22:41;;;;;;;10.30;4.50;;;18.10;33.50;;;;;;6165539;23;20993;-90
2021/10/25 12:25:14;;;;;;;6.77;4.17;;;17.90;35.50;;;;;;6162903;23;20411;-89
2021/10/25 12:27:50;;;;;;;9.33;4.47;;;17.70;33.10;;;;;;6164278;23;20408;-91
2021/10/25 12:30:19;;;;;;;9.00;3.83;;;17.80;34.60;;;;;;6164000;23;20404;-90
2021/10/25 12:32:54;;;;;;;6.60;3.90;;;17.80;33.20;;;;;;6163115;23;20786;-89
2021/10/25 12:35:38;;;;;;;13.63;4.47;;;17.70;32.30;;;;;;6163641;23;20407;-89
2021/10/25 12:38:11;;;;;;;11.10;4.67;;;17.90;34.00;;;;;;6164025;23;20422;-90
2021/10/25 12:40:42;;;;;;;7.30;4.70;;;18.10;37.60;;;;;;6154452;23;20409;-90
2021/10/25 12:43:16;;;;;;;8.60;5.03;;;17.80;36.10;;;;;;6163695;23;20441;-88
2021/10/25 12:46:09;;;;;;;12.47;5.40;;;18.00;35.10;;;;;;6164889;23;20899;-90
2021/10/25 12:49:14;;;;;;;10.33;4.30;;;18.10;34.80;;;;;;6168581;23;20408;-86
2021/10/25 12:51:46;;;;;;;7.73;4.40;;;18.10;35.00;;;;;;6165378;23;20740;-90
2021/10/25 12:54:15;;;;;;;6.50;4.20;;;17.90;36.80;;;;;;6155411;23;20414;-90
2021/10/25 12:56:43;;;;;;;15.40;4.50;;;17.90;36.90;;;;;;6154900;23;20410;-90
2021/10/25 12:59:13;;;;;;;7.70;5.13;;;17.80;36.80;;;;;;6164936;23;20421;-90
2021/10/25 13:01:51;;;;;;;7.43;4.63;;;17.80;38.50;;;;;;6154229;23;20445;-89
2021/10/25 13:04:20;;;;;;;7.80;3.43;;;17.40;37.40;;;;;;6156269;23;20494;-90
2021/10/25 13:06:48;;;;;;;12.60;4.83;;;17.40;37.90;;;;;;6165081;23;20415;-89
2021/10/25 13:09:18;;;;;;;8.50;4.03;;;17.30;38.90;;;;;;6155342;23;20407;-89
2021/10/25 13:11:48;;;;;;;13.07;5.30;;;17.50;39.20;;;;;;6145073;23;20752;-92
2021/10/25 13:14:17;;;;;;;8.00;4.23;;;17.20;39.70;;;;;;6135301;23;20442;-90
2021/10/25 13:16:48;;;;;;;7.13;4.07;;;17.10;38.70;;;;;;6124919;23;20405;-89
2021/10/25 13:19:18;;;;;;;12.00;4.60;;;17.10;39.00;;;;;;6135438;23;20412;-91
2021/10/25 13:21:46;;;;;;;8.70;3.93;;;17.00;36.40;;;;;;6135500;23;20416;-91
2021/10/25 13:24:16;;;;;;;8.60;4.20;;;17.10;38.80;;;;;;6135451;23;20436;-90
2021/10/25 13:26:44;;;;;;;9.73;4.83;;;17.00;38.80;;;;;;6130454;23;20492;-90
2021/10/25 13:29:11;;;;;;;11.50;4.80;;;17.20;34.10;;;;;;6127450;23;20405;-91
2021/10/25 13:31:40;;;;;;;8.67;4.20;;;17.30;39.20;;;;;;6135683;23;20408;-87
2021/10/25 13:34:10;;;;;;;7.60;3.80;;;17.20;35.70;;;;;;6137362;23;20988;-89
2021/10/25 13:36:37;;;;;;;8.63;3.70;;;17.20;32.70;;;;;;6127182;23;20407;-89
2021/10/25 13:39:04;;;;;;;14.13;4.10;;;17.00;36.40;;;;;;6137571;23;20411;-91
2021/10/25 13:41:32;;;;;;;11.30;4.07;;;16.80;36.60;;;;;;6136765;23;20419;-91
2021/10/25 13:43:59;;;;;;;8.70;3.80;;;16.90;36.40;;;;;;6127350;23;20442;-90
2021/10/25 13:46:28;;;;;;;7.20;3.47;;;16.80;34.20;;;;;;6135387;23;20414;-89
2021/10/25 13:48:56;;;;;;;9.13;4.57;;;16.70;37.30;;;;;;6137050;23;20523;-90
2021/10/25 13:51:23;;;;;;;8.17;4.40;;;16.50;37.40;;;;;;6137249;23;20490;-87
2021/10/25 13:53:50;;;;;;;13.27;4.13;;;16.40;40.90;;;;;;6127388;23;20450;-89
2021/10/25 13:56:18;;;;;;;9.20;4.17;;;16.40;38.40;;;;;;6137239;23;20748;-90
2021/10/25 13:58:48;;;;;;;7.73;3.57;;;16.30;39.70;;;;;;6136694;23;20914;-87
2021/10/25 14:01:20;;;;;;;12.60;4.23;;;16.30;39.80;;;;;;6135689;23;20455;-86
2021/10/25 14:03:49;;;;;;;11.00;4.00;;;16.10;39.90;;;;;;6137002;23;20961;-91
2021/10/25 14:06:20;;;;;;;9.17;4.17;;;16.20;40.80;;;;;;6137385;23;20417;-88
2021/10/25 14:08:49;;;;;;;9.30;3.70;;;16.20;40.80;;;;;;6127478;23;20410;-86
2021/10/25 14:11:19;;;;;;;8.50;4.27;;;16.10;40.70;;;;;;6127588;23;20426;-87
2021/10/25 14:14:05;;;;;;;7.57;3.20;;;16.00;38.00;;;;;;6137409;23;20827;-87
2021/10/25 14:20:34;;;;;;;8.60;3.30;;;16.30;39.40;;;;;;6135217;23;20542;-87
2021/10/25 14:23:02;;;;;;;12.30;5.10;;;16.50;39.50;;;;;;6009270;23;20440;-87
2021/10/25 14:25:53;;;;;;;;;;;;;;;;;;;;;
2021/10/25 14:31:25;;;;;;;;;;;;;;;;;;;;;
2021/10/25 14:34:05;;;;;;;11.50;5.03;;;16.40;39.60;;;;;;6137147;23;20412;-88
2021/10/25 14:39:35;;;;;;;9.23;4.13;;;16.10;40.70;;;;;;6135021;23;20418;-86
2021/10/25 14:42:40;;;;;;;8.60;3.97;;;15.70;41.40;;;;;;6120725;23;20451;-82
2021/10/25 14:45:28;;;;;;;7.33;3.37;;;15.50;40.20;;;;;;6166915;23;20433;-86
2021/10/25 14:48:18;;;;;;;6.10;3.40;;;15.30;41.50;;;;;;6164587;23;20759;-84
2021/10/25 14:53:42;;;;;;;7.63;3.30;;;14.90;40.80;;;;;;6166503;23;20450;-85
2021/10/25 14:56:28;;;;;;;17.23;4.47;;;14.80;39.80;;;;;;6166382;23;20447;-84
2021/10/25 14:58:55;;;;;;;15.67;4.20;;;14.70;43.90;;;;;;6166178;23;20425;-87
2021/10/25 15:01:43;;;;;;;6.73;3.77;;;14.60;45.10;;;;;;6164854;23;20490;-86
2021/10/25 15:04:11;;;;;;;16.00;4.37;;;14.40;44.40;;;;;;6166244;23;20769;-84
2021/10/25 15:07:21;;;;;;;7.37;3.57;;;14.30;47.90;;;;;;6166426;23;20418;-84
2021/10/25 15:10:36;;;;;;;7.10;3.07;;;14.30;46.80;;;;;;6107001;23;20438;-83
2021/10/25 15:16:36;;;;;;;9.13;3.70;;;13.80;49.70;;;;;;5953442;24;20490;-85
2021/10/25 15:19:24;;;;;;;6.90;3.53;;;13.40;52.80;;;;;;6004861;23;20412;-82
2021/10/25 15:22:02;;;;;;;7.20;2.87;;;13.20;54.20;;;;;;6102450;23;20502;-83
2021/10/25 15:24:38;;;;;;;7.07;2.80;;;13.20;54.40;;;;;;6110661;23;20449;-85
2021/10/25 15:27:11;;;;;;;6.80;3.20;;;12.90;56.80;;;;;;6134668;23;20421;-91
2021/10/25 15:29:42;;;;;;;6.30;3.30;;;12.90;59.10;;;;;;6125437;23;20400;-88
2021/10/25 15:32:21;;;;;;;7.37;4.03;;;12.80;63.50;;;;;;6133568;23;20415;-84
2021/10/25 15:34:53;;;;;;;8.20;3.97;;;12.50;74.60;;;;;;6124721;23;20470;-92
2021/10/25 15:37:22;;;;;;;12.50;4.37;;;12.10;91.80;;;;;;6135438;23;20439;-92
2021/10/25 15:39:55;;;;;;;9.63;8.73;;;12.00;95.70;;;;;;6125142;23;20462;-90
2021/10/25 15:42:28;;;;;;;9.57;8.87;;;11.70;99.90;;;;;;6135079;23;20447;-86
2021/10/25 15:44:58;;;;;;;28.87;27.17;;;11.60;99.90;;;;;;6135198;23;20505;-90
2021/10/25 15:47:30;;;;;;;59.77;57.00;;;11.40;99.90;;;;;;6125268;23;20429;-90
2021/10/25 15:49:59;;;;;;;125.80;120.90;;;11.40;99.90;;;;;;6136596;23;20449;-88
2021/10/25 15:52:35;;;;;;;144.93;139.53;;;11.30;99.90;;;;;;6133806;23;20419;-89
2021/10/25 15:55:07;;;;;;;311.97;302.23;;;11.20;99.90;;;;;;6134530;23;20407;-88
2021/10/25 15:57:37;;;;;;;493.23;476.37;;;11.30;99.90;;;;;;6124571;23;20454;-86
2021/10/25 16:00:32;;;;;;;629.63;602.00;;;11.20;99.90;;;;;;6135248;23;20415;-87
2021/10/25 16:03:08;;;;;;;713.50;675.00;;;11.20;99.90;;;;;;6133220;23;20496;-82
2021/10/25 16:05:35;;;;;;;758.30;713.43;;;11.10;99.90;;;;;;6106274;23;20520;-88
2021/10/25 16:08:03;;;;;;;750.83;704.57;;;11.10;99.90;;;;;;6124383;23;20967;-91
2021/10/25 16:11:10;;;;;;;751.50;702.27;;;11.10;99.90;;;;;;6125138;23;20439;-86
2021/10/25 16:14:20;;;;;;;;;;;;;;;;;;;;;
2021/10/25 16:16:49;;;;;;;780.20;724.13;;;11.00;99.90;;;;;;6102930;23;20740;-86
2021/10/25 16:19:22;;;;;;;777.53;720.03;;;11.00;99.90;;;;;;6125456;23;20403;-83
2021/10/25 16:21:51;;;;;;;790.17;728.70;;;11.10;99.90;;;;;;6125308;23;20799;-83
2021/10/25 16:24:20;;;;;;;774.37;712.07;;;11.00;99.90;;;;;;6134847;23;20470;-85
2021/10/25 16:26:49;;;;;;;798.70;734.00;;;11.10;99.90;;;;;;6124344;23;20451;-83
2021/10/25 16:29:17;;;;;;;797.87;732.40;;;11.00;99.90;;;;;;6134430;23;20450;-84
2021/10/25 16:31:45;;;;;;;796.43;729.47;;;11.10;99.90;;;;;;6124708;23;20425;-85
2021/10/25 16:34:13;;;;;;;782.17;714.90;;;11.00;99.90;;;;;;6134356;23;20798;-85
2021/10/25 16:36:43;;;;;;;780.27;714.47;;;11.00;99.90;;;;;;6125644;23;20401;-86
2021/10/25 16:39:12;;;;;;;784.47;718.17;;;11.10;99.90;;;;;;6124408;23;20486;-85
2021/10/25 16:41:49;;;;;;;793.13;724.80;;;11.00;99.90;;;;;;6122321;23;20403;-86
2021/10/25 16:44:40;;;;;;;806.17;737.77;;;10.90;99.90;;;;;;6134138;23;20432;-85
2021/10/25 16:47:16;;;;;;;821.43;753.20;;;11.00;99.90;;;;;;6132750;23;20429;-86
2021/10/25 16:49:51;;;;;;;823.47;753.87;;;10.90;99.90;;;;;;6124605;23;20402;-86
2021/10/25 16:52:25;;;;;;;807.60;738.20;;;10.90;99.90;;;;;;6124602;23;20410;-84
2021/10/25 16:55:28;;;;;;;827.40;758.80;;;11.00;99.90;;;;;;6123740;23;20403;-85
2021/10/25 17:03:51;;;;;;;811.33;745.60;;;10.90;99.90;;;;;;6125967;23;20398;-84
2021/10/25 17:11:48;;;;;;;829.20;762.00;;;11.00;99.90;;;;;;6122910;23;20407;-83
2021/10/25 17:14:15;;;;;;;831.30;761.33;;;11.00;99.90;;;;;;6136030;23;20465;-84
2021/10/25 17:16:45;;;;;;;822.93;754.20;;;10.90;99.90;;;;;;6134342;23;20415;-84
2021/10/25 17:19:12;;;;;;;813.10;749.57;;;11.00;99.90;;;;;;6060269;23;20424;-84
2021/10/25 17:21:40;;;;;;;809.20;746.13;;;11.00;99.90;;;;;;6136086;23;20411;-88
2021/10/25 17:24:15;;;;;;;819.80;753.93;;;11.00;99.90;;;;;;6135894;23;20459;-83
2021/10/25 17:26:51;;;;;;;804.70;745.27;;;11.00;99.90;;;;;;6136115;23;20406;-86
2021/10/25 17:29:20;;;;;;;763.13;710.37;;;11.00;99.90;;;;;;6125665;23;20903;-86
2021/10/25 17:31:50;;;;;;;775.30;719.70;;;11.00;99.90;;;;;;6134037;23;20414;-87
2021/10/25 17:34:17;;;;;;;778.07;728.60;;;11.00;99.90;;;;;;6125780;23;20907;-87
2021/10/25 17:36:46;;;;;;;789.77;736.80;;;11.10;99.90;;;;;;6133216;23;20470;-86
2021/10/25 17:39:27;;;;;;;815.50;758.90;;;11.00;99.90;;;;;;6134622;23;20418;-85
2021/10/25 17:41:55;;;;;;;801.27;742.00;;;11.00;99.90;;;;;;6125928;23;20431;-87
2021/10/25 17:44:22;;;;;;;786.17;723.38;;;11.00;99.90;;;;;;6135071;23;20426;-84
2021/10/25 17:46:49;;;;;;;775.17;719.77;;;11.00;99.90;;;;;;6125822;23;20608;-86
2021/10/25 17:49:17;;;;;;;774.13;724.77;;;11.10;99.90;;;;;;6126177;23;20407;-84
2021/10/25 17:51:46;;;;;;;776.77;728.47;;;11.10;99.90;;;;;;6126816;23;20403;-84
2021/10/25 17:54:27;;;;;;;763.27;719.50;;;11.10;99.90;;;;;;6137670;23;20518;-84
2021/10/25 17:57:09;;;;;;;747.90;708.40;;;11.10;99.90;;;;;;6138359;23;20422;-88
2021/10/25 17:59:50;;;;;;;;;;;;;;;;;;;;;
2021/10/25 18:02:20;;;;;;;722.97;686.37;;;11.10;99.90;;;;;;6098138;23;20442;-89
2021/10/25 18:04:52;;;;;;;717.50;681.13;;;11.10;99.90;;;;;;6125160;23;20503;-87
2021/10/25 18:07:22;;;;;;;731.63;692.23;;;11.10;99.90;;;;;;6134523;23;20438;-88
2021/10/25 18:09:56;;;;;;;748.03;705.63;;;11.10;99.90;;;;;;6135287;23;20414;-89
2021/10/25 18:12:23;;;;;;;752.67;709.07;;;11.00;99.90;;;;;;6136547;23;20432;-90
2021/10/25 18:14:50;;;;;;;741.97;699.20;;;11.10;99.90;;;;;;6129096;23;20403;-88
2021/10/25 18:17:17;;;;;;;771.67;722.45;;;11.10;99.90;;;;;;6129062;23;20788;-89
2021/10/25 18:19:44;;;;;;;742.37;698.77;;;11.10;99.90;;;;;;6138318;23;20198;-93
2021/10/25 18:22:13;;;;;;;759.67;713.47;;;11.10;99.90;;;;;;6137437;23;20507;-89
2021/10/25 18:24:39;;;;;;;782.07;731.70;;;11.10;99.90;;;;;;6135026;23;20434;-89
2021/10/25 18:27:08;;;;;;;772.90;722.57;;;11.00;99.90;;;;;;6137422;23;20415;-88
2021/10/25 18:29:35;;;;;;;767.20;717.67;;;11.00;99.90;;;;;;6137422;23;20425;-87
2021/10/25 18:32:03;;;;;;;756.93;706.80;;;11.00;99.90;;;;;;6126079;23;20435;-89
2021/10/25 18:34:30;;;;;;;763.90;714.00;;;11.10;99.90;;;;;;6137182;23;20419;-86
2021/10/25 18:36:57;;;;;;;746.93;697.67;;;11.00;99.90;;;;;;6127371;23;20485;-85
2021/10/25 18:39:24;;;;;;;749.67;701.23;;;11.00;99.90;;;;;;6137261;23;20930;-90
2021/10/25 18:41:51;;;;;;;753.23;704.23;;;11.10;99.90;;;;;;6137174;23;20432;-85
2021/10/25 18:44:19;;;;;;;768.37;718.40;;;11.00;99.90;;;;;;6127124;23;21009;-88
2021/10/25 18:46:47;;;;;;;768.43;717.53;;;11.00;99.90;;;;;;6136015;23;20415;-88
2021/10/25 18:49:16;;;;;;;757.73;706.07;;;11.00;99.90;;;;;;6125830;23;20414;-86
2021/10/25 18:51:43;;;;;;;761.03;709.43;;;11.00;99.90;;;;;;6126964;23;20404;-86
2021/10/25 18:54:13;;;;;;;754.13;704.73;;;11.10;99.90;;;;;;6137174;23;20446;-86
2021/10/25 18:56:40;;;;;;;756.47;705.27;;;11.10;99.90;;;;;;6127091;23;20399;-87
2021/10/25 18:59:09;;;;;;;748.53;699.10;;;11.00;99.90;;;;;;6136676;23;20901;-88
2021/10/25 19:01:45;;;;;;;743.00;696.90;;;11.00;99.90;;;;;;6126025;23;20728;-90
2021/10/25 19:04:18;;;;;;;748.17;698.10;;;11.10;99.90;;;;;;6127310;23;20411;-86
2021/10/25 19:06:47;;;;;;;755.53;705.60;;;11.00;99.90;;;;;;6127285;23;20443;-85
2021/10/25 19:09:14;;;;;;;754.17;704.37;;;11.10;99.90;;;;;;6135568;23;20510;-89
2021/10/25 19:11:42;;;;;;;752.40;702.77;;;10.90;99.90;;;;;;6137142;23;20422;-88
2021/10/25 19:14:12;;;;;;;758.90;707.67;;;10.90;99.90;;;;;;6127067;23;20458;-88
2021/10/25 19:16:42;;;;;;;759.23;708.03;;;10.80;99.90;;;;;;6125486;23;20407;-86
2021/10/25 19:19:13;;;;;;;751.20;699.40;;;10.80;99.90;;;;;;6127111;23;20443;-88
2021/10/25 19:21:42;;;;;;;748.17;695.80;;;10.90;99.90;;;;;;6127065;23;20434;-87
2021/10/25 19:24:10;;;;;;;752.93;701.73;;;11.00;99.90;;;;;;6134650;23;20461;-87
2021/10/25 19:26:37;;;;;;;751.33;700.73;;;10.90;99.90;;;;;;6127365;23;20407;-87
2021/10/25 19:29:08;;;;;;;754.13;703.23;;;11.00;99.90;;;;;;6127331;23;20776;-86
2021/10/25 19:31:35;;;;;;;751.80;700.60;;;11.00;99.90;;;;;;6125348;23;20410;-87
2021/10/25 19:34:05;;;;;;;755.00;703.70;;;11.00;99.90;;;;;;6127141;23;20868;-85
2021/10/25 19:36:32;;;;;;;757.83;706.80;;;11.10;99.90;;;;;;6136760;23;20450;-86
2021/10/25 19:38:59;;;;;;;754.87;704.30;;;11.10;99.90;;;;;;6126950;23;20411;-85
2021/10/25 19:41:28;;;;;;;757.70;709.43;;;11.00;99.90;;;;;;6126999;23;20403;-84
2021/10/25 19:43:55;;;;;;;765.00;716.27;;;11.00;99.90;;;;;;6136792;23;20418;-85
2021/10/25 19:46:24;;;;;;;757.93;712.10;;;11.10;99.90;;;;;;6125176;23;20435;-86
2021/10/25 19:48:51;;;;;;;750.47;705.57;;;10.90;99.90;;;;;;6126587;23;20450;-84
2021/10/25 19:51:19;;;;;;;726.33;684.97;;;10.90;99.90;;;;;;6126830;23;20403;-84
2021/10/25 19:53:46;;;;;;;753.60;708.80;;;10.90;99.90;;;;;;6136826;23;20418;-87
2021/10/25 19:56:17;;;;;;;763.27;716.67;;;10.80;99.90;;;;;;6126703;23;20403;-85
2021/10/25 19:58:44;;;;;;;762.70;712.10;;;10.60;99.90;;;;;;6136418;23;20415;-88
2021/10/25 20:01:12;;;;;;;767.37;715.70;;;10.60;99.90;;;;;;6125678;23;20406;-89
2021/10/25 20:03:39;;;;;;;762.23;708.30;;;10.70;99.90;;;;;;6127496;23;20435;-89
2021/10/25 20:06:07;;;;;;;766.90;712.33;;;10.70;99.90;;;;;;6126728;23;20933;-85
2021/10/25 20:08:38;;;;;;;761.20;706.43;;;10.80;99.90;;;;;;6137508;23;20411;-86
2021/10/25 20:11:07;;;;;;;769.00;714.03;;;10.70;99.90;;;;;;6127745;23;20502;-88
2021/10/25 20:13:34;;;;;;;760.20;704.40;;;10.60;99.90;;;;;;6127757;23;20449;-88
2021/10/25 20:16:04;;;;;;;768.07;713.10;;;10.60;99.90;;;;;;6136273;23;20403;-84
2021/10/25 20:18:31;;;;;;;758.33;700.20;;;10.60;99.90;;;;;;6126991;23;20403;-87
2021/10/25 20:20:58;;;;;;;762.20;704.73;;;10.50;99.90;;;;;;6136810;23;20728;-88
2021/10/25 20:23:25;;;;;;;751.73;697.90;;;10.60;99.90;;;;;;6136656;23;20411;-85
2021/10/25 20:25:53;;;;;;;744.87;689.67;;;10.70;99.90;;;;;;6127289;23;20434;-83
2021/10/25 20:28:23;;;;;;;742.10;687.70;;;10.80;99.90;;;;;;6125375;23;20486;-87
2021/10/25 20:30:52;;;;;;;748.70;696.30;;;10.80;99.90;;;;;;6127013;23;20481;-85
2021/10/25 20:33:19;;;;;;;758.87;706.03;;;10.90;99.90;;;;;;6136208;23;20429;-90
2021/10/25 20:35:46;;;;;;;767.37;714.87;;;10.90;99.90;;;;;;6136541;23;20481;-89
2021/10/25 20:38:13;;;;;;;762.80;711.50;;;10.80;99.90;;;;;;6136703;23;20462;-87
2021/10/25 20:40:40;;;;;;;769.47;717.70;;;10.90;99.90;;;;;;6126920;23;20883;-88
2021/10/25 20:43:08;;;;;;;764.90;714.20;;;11.00;99.90;;;;;;6136431;23;20423;-86
2021/10/25 20:45:35;;;;;;;761.53;709.93;;;10.90;99.90;;;;;;6136302;23;20778;-89
2021/10/25 20:48:02;;;;;;;760.10;710.90;;;10.90;99.90;;;;;;6135047;23;20411;-87
2021/10/25 20:50:29;;;;;;;753.97;705.20;;;10.90;99.90;;;;;;6126925;23;20491;-88
2021/10/25 20:52:56;;;;;;;760.20;712.20;;;11.00;99.90;;;;;;6126819;23;20403;-89
2021/10/25 20:55:23;;;;;;;749.67;705.40;;;11.00;99.90;;;;;;6126724;23;20399;-88
2021/10/25 20:57:50;;;;;;;738.13;694.77;;;11.10;99.90;;;;;;6136107;23;20403;-86
2021/10/25 21:00:19;;;;;;;737.33;694.23;;;11.00;99.90;;;;;;6125970;23;20970;-87
2021/10/25 21:02:53;;;;;;;724.80;683.50;;;11.10;99.90;;;;;;6126109;23;20445;-86
2021/10/25 21:05:20;;;;;;;716.10;676.87;;;11.20;99.90;;;;;;6155220;23;20456;-87
2021/10/25 21:07:47;;;;;;;722.87;683.10;;;11.10;99.90;;;;;;6155980;23;20402;-84
2021/10/25 21:10:14;;;;;;;714.73;675.70;;;11.10;99.90;;;;;;6165287;23;20414;-85
2021/10/25 21:12:42;;;;;;;717.57;677.80;;;11.00;99.90;;;;;;6155764;23;20457;-85
2021/10/25 21:15:10;;;;;;;714.87;674.97;;;10.90;99.90;;;;;;6155926;23;20430;-87
2021/10/25 21:17:54;;;;;;;712.17;672.57;;;11.00;99.90;;;;;;6164126;23;20402;-88
2021/10/25 21:20:22;;;;;;;715.97;675.90;;;11.00;99.90;;;;;;6153940;23;20792;-84
2021/10/25 21:22:49;;;;;;;730.70;688.40;;;10.90;99.90;;;;;;6165362;23;20421;-88